Time;durP1;ratioP1;P1;durP2;ratioP2;P2;SDS_P1;SDS_P2;PMS_P1;PMS_P2;Temp;Humidity;BMP_temperature;BMP_pressure;BME280_temperature;BME280_humidity;BME280_pressure;Samples;Min_cycle;Max_cycle;Signal;HPM_P1;HPM_P2
2022/09/18 00:00:10;;;;;;;823.40;770.70;;;;;;;19.12;99.58;98241.56;348015;28;1145;-77
2022/09/18 00:00:20;;;;;;;819.10;766.42;;;;;;;19.11;99.75;98239.91;347451;28;1239;-76
2022/09/18 00:00:30;;;;;;;825.77;772.97;;;;;;;19.12;99.64;98241.56;347674;28;1188;-76
2022/09/18 00:00:43;;;;;;;828.75;775.85;;;;;;;19.14;99.47;98248.38;344738;28;3706;-75
2022/09/18 00:00:53;;;;;;;833.40;780.60;;;;;;;19.12;99.61;98244.22;345117;28;3243;-75
2022/09/18 00:01:08;;;;;;;834.00;780.93;;;;;;;19.10;99.74;98238.22;347077;28;1993;-75
2022/09/18 00:01:21;;;;;;;828.63;775.83;;;;;;;19.07;99.53;98243.84;343964;28;1407;-76
2022/09/18 00:01:32;;;;;;;823.70;771.20;;;;;;;19.05;99.66;98248.47;344660;28;1647;-76
2022/09/18 00:01:42;;;;;;;824.42;771.67;;;;;;;19.08;99.94;98242.84;344526;28;880;-76
2022/09/18 00:01:53;;;;;;;822.07;769.30;;;;;;;19.09;99.75;98242.69;340367;28;1292;-76
2022/09/18 00:02:03;;;;;;;823.50;770.77;;;;;;;19.12;99.94;98238.91;340741;29;782;-76
2022/09/18 00:02:14;;;;;;;821.38;768.90;;;;;;;19.11;99.81;98240.72;340479;29;1269;-76
2022/09/18 00:02:25;;;;;;;818.95;766.58;;;;;;;19.14;99.74;98243.09;343822;28;1166;-75
2022/09/18 00:02:35;;;;;;;813.13;760.90;;;;;;;19.12;99.67;98244.22;346120;28;1244;-74
2022/09/18 00:02:45;;;;;;;812.40;760.15;;;;;;;19.10;99.36;98246.19;341950;28;1657;-74
2022/09/18 00:02:56;;;;;;;817.30;764.93;;;;;;;19.08;99.67;98245.50;343249;28;1258;-76
2022/09/18 00:03:06;;;;;;;822.83;770.25;;;;;;;19.10;99.62;98247.03;343256;28;1817;-76
2022/09/18 00:03:17;;;;;;;827.50;774.80;;;;;;;19.09;99.47;98247.16;342908;28;1459;-75
2022/09/18 00:03:27;;;;;;;821.27;768.63;;;;;;;19.09;99.38;98245.34;345395;28;1637;-76
2022/09/18 00:03:38;;;;;;;823.33;770.60;;;;;;;19.08;99.58;98245.50;347118;28;1659;-76
2022/09/18 00:03:49;;;;;;;823.00;770.25;;;;;;;19.07;99.28;98238.53;343413;28;942;-76
2022/09/18 00:04:01;;;;;;;823.58;770.90;;;;;;;19.07;99.51;98243.84;342149;28;903;-76
2022/09/18 00:04:15;;;;;;;824.80;772.10;;;;;;;19.05;99.57;98240.53;340110;29;1370;-77
2022/09/18 00:04:26;;;;;;;826.60;773.85;;;;;;;19.02;99.88;98239.00;341217;28;1455;-76
2022/09/18 00:04:36;;;;;;;825.03;772.25;;;;;;;19.04;99.57;98241.50;341589;28;1275;-77
2022/09/18 00:04:48;;;;;;;822.57;769.87;;;;;;;19.04;99.69;98249.47;340558;28;1227;-77
2022/09/18 00:04:59;;;;;;;823.47;770.90;;;;;;;19.04;99.61;98233.56;339471;28;1546;-76
2022/09/18 00:05:10;;;;;;;818.08;765.83;;;;;;;19.04;99.71;98239.69;341926;28;1215;-76
2022/09/18 00:05:20;;;;;;;818.90;766.60;;;;;;;19.04;99.61;98238.84;341982;28;869;-76
2022/09/18 00:05:31;;;;;;;825.87;773.43;;;;;;;19.07;100.00;98238.53;340662;29;1193;-76
2022/09/18 00:05:42;;;;;;;829.70;777.08;;;;;;;19.07;99.52;98238.53;339945;29;1398;-76
2022/09/18 00:05:52;;;;;;;831.50;778.80;;;;;;;19.07;99.62;98233.22;339847;28;1317;-76
2022/09/18 00:06:15;;;;;;;830.47;777.77;;;;;;;19.07;99.62;98241.19;338047;29;1482;-76
2022/09/18 00:06:27;;;;;;;830.10;777.67;;;;;;;19.06;99.81;98234.25;341645;28;967;-76
2022/09/18 00:06:38;;;;;;;830.00;777.55;;;;;;;19.05;99.60;98237.88;344281;28;1779;-76
2022/09/18 00:06:49;;;;;;;827.63;775.15;;;;;;;19.05;99.72;98235.22;341508;28;1918;-76
2022/09/18 00:06:59;;;;;;;827.60;774.80;;;;;;;19.05;100.00;98229.91;343231;28;1437;-75
2022/09/18 00:07:10;;;;;;;832.95;779.60;;;;;;;19.03;99.67;98243.31;341897;28;1017;-75
2022/09/18 00:07:20;;;;;;;835.00;781.40;;;;;;;19.03;99.79;98231.88;338976;29;1251;-75
2022/09/18 00:07:31;;;;;;;832.13;778.97;;;;;;;19.03;99.98;98231.88;335463;29;1218;-75
2022/09/18 00:07:41;;;;;;;826.27;773.73;;;;;;;19.01;99.72;98234.69;339515;29;1338;-75
2022/09/18 00:07:53;;;;;;;829.00;776.38;;;;;;;19.02;100.00;98235.53;334895;29;1600;-75
2022/09/18 00:08:03;;;;;;;831.03;778.33;;;;;;;19.03;100.00;98231.88;333613;29;880;-76
2022/09/18 00:08:14;;;;;;;833.45;780.58;;;;;;;19.04;99.86;98234.38;330031;29;1571;-76
2022/09/18 00:08:24;;;;;;;834.27;781.40;;;;;;;19.04;100.00;98237.03;330687;29;1600;-76
2022/09/18 00:08:37;;;;;;;832.03;779.13;;;;;;;19.03;100.00;98237.19;330883;29;1313;-78
2022/09/18 00:08:51;;;;;;;825.17;772.53;;;;;;;19.05;100.00;98238.72;333020;29;783;-77
2022/09/18 00:09:04;;;;;;;823.08;770.67;;;;;;;19.05;100.00;98230.75;326735;30;844;-76
2022/09/18 00:09:15;;;;;;;821.42;768.97;;;;;;;19.07;100.00;98233.22;324242;30;1430;-76
2022/09/18 00:09:26;;;;;;;825.30;772.63;;;;;;;19.09;100.00;98241.88;324999;30;1166;-75
2022/09/18 00:09:37;;;;;;;823.03;770.45;;;;;;;19.08;100.00;98235.72;324219;30;1111;-75
2022/09/18 00:09:47;;;;;;;827.20;774.45;;;;;;;19.09;100.00;98237.41;323479;30;3910;-76
2022/09/18 00:10:00;;;;;;;823.13;770.60;;;;;;;19.09;100.00;98234.75;321953;30;4989;-76
2022/09/18 00:10:11;;;;;;;823.22;770.65;;;;;;;19.11;100.00;98235.44;320651;30;1830;-76
2022/09/18 00:10:21;;;;;;;828.28;775.58;;;;;;;19.12;100.00;98239.75;319475;30;2204;-76
2022/09/18 00:10:31;;;;;;;825.73;773.20;;;;;;;19.12;100.00;98239.75;317913;31;3157;-75
2022/09/18 00:10:44;;;;;;;824.72;772.30;;;;;;;19.12;100.00;98238.91;316145;31;2260;-76
2022/09/18 00:10:54;;;;;;;823.45;770.92;;;;;;;19.12;100.00;98237.09;316270;30;2035;-75
2022/09/18 00:11:06;;;;;;;825.50;772.90;;;;;;;19.12;100.00;98238.91;317046;30;2416;-76
2022/09/18 00:11:17;;;;;;;824.97;772.47;;;;;;;19.09;100.00;98241.88;317347;31;842;-75
2022/09/18 00:11:29;;;;;;;821.33;769.00;;;;;;;19.08;100.00;98240.19;316978;31;1719;-75
2022/09/18 00:11:42;;;;;;;815.53;763.35;;;;;;;19.08;100.00;98243.69;318121;30;1667;-76
2022/09/18 00:11:52;;;;;;;822.10;769.58;;;;;;;19.09;100.00;98244.50;318757;30;1853;-75
2022/09/18 00:12:02;;;;;;;823.63;770.93;;;;;;;19.08;100.00;98240.19;312681;31;1761;-75
2022/09/18 00:12:13;;;;;;;827.47;774.78;;;;;;;19.04;100.00;98238.84;313923;31;2484;-75
2022/09/18 00:12:25;;;;;;;821.67;769.03;;;;;;;19.01;100.00;98244.47;314565;31;2805;-76
2022/09/18 00:12:35;;;;;;;820.95;768.30;;;;;;;18.99;100.00;98241.97;312760;31;3122;-76
2022/09/18 00:12:46;;;;;;;822.35;769.50;;;;;;;19.00;100.00;98242.78;310161;31;1886;-76
2022/09/18 00:12:57;;;;;;;829.50;776.43;;;;;;;19.00;100.00;98234.84;313886;31;2949;-75
2022/09/18 00:13:08;;;;;;;836.22;783.00;;;;;;;18.98;100.00;98244.75;314128;31;3061;-75
2022/09/18 00:13:18;;;;;;;836.97;783.83;;;;;;;18.98;100.00;98247.41;313541;31;1374;-75
2022/09/18 00:13:29;;;;;;;829.53;776.55;;;;;;;18.99;100.00;98246.41;310203;31;3112;-75
2022/09/18 00:13:40;;;;;;;824.03;771.23;;;;;;;18.99;100.00;98249.06;306967;31;2405;-75
2022/09/18 00:13:50;;;;;;;823.40;770.63;;;;;;;18.97;100.00;98245.75;305031;32;1984;-76
2022/09/18 00:14:01;;;;;;;826.80;773.75;;;;;;;18.98;100.00;98245.59;307366;32;899;-76
2022/09/18 00:14:13;;;;;;;830.10;776.97;;;;;;;18.97;100.00;98248.38;305468;32;3216;-75
2022/09/18 00:14:24;;;;;;;831.65;778.70;;;;;;;18.99;100.00;98251.72;304122;32;3288;-75
2022/09/18 00:14:34;;;;;;;834.03;781.05;;;;;;;18.97;100.00;98248.38;304021;32;3958;-75
2022/09/18 00:14:45;;;;;;;833.60;780.67;;;;;;;18.95;100.00;98243.22;303096;32;1368;-75
2022/09/18 00:14:55;;;;;;;832.28;779.42;;;;;;;18.94;100.00;98249.53;300928;32;4883;-75
2022/09/18 00:15:06;;;;;;;833.37;780.50;;;;;;;18.94;100.00;98244.22;300752;32;4394;-75
2022/09/18 00:15:17;;;;;;;831.70;778.88;;;;;;;18.93;100.00;98239.91;298335;33;1320;-75
2022/09/18 00:15:27;;;;;;;831.90;779.00;;;;;;;18.91;100.00;98240.03;293399;33;3920;-75
2022/09/18 00:15:37;;;;;;;827.75;775.00;;;;;;;18.92;100.00;98249.66;293426;33;4910;-75
2022/09/18 00:15:54;;;;;;;826.23;773.63;;;;;;;18.96;100.00;98249.38;292994;33;1230;-75
2022/09/18 00:16:05;;;;;;;823.88;771.58;;;;;;;18.94;100.00;98245.06;290004;33;3112;-75
2022/09/18 00:16:17;;;;;;;823.53;771.15;;;;;;;18.94;100.00;98242.41;287323;34;1299;-75
2022/09/18 00:16:27;;;;;;;829.67;776.78;;;;;;;18.94;100.00;98247.69;285549;34;4387;-75
2022/09/18 00:16:38;;;;;;;829.87;776.97;;;;;;;18.93;100.00;98245.19;284548;34;4787;-75
2022/09/18 00:16:48;;;;;;;825.85;773.20;;;;;;;18.92;100.00;98247.00;284534;34;1091;-75
2022/09/18 00:16:59;;;;;;;816.77;764.43;;;;;;;18.93;100.00;98243.38;284495;34;6298;-75
2022/09/18 00:17:09;;;;;;;818.42;765.92;;;;;;;18.93;100.00;98246.03;284750;34;6704;-75
2022/09/18 00:17:19;;;;;;;819.67;766.93;;;;;;;18.93;100.00;98243.38;282767;34;6705;-75
2022/09/18 00:17:30;;;;;;;823.85;770.95;;;;;;;18.96;100.00;98241.41;282581;35;1645;-75
2022/09/18 00:17:40;;;;;;;825.93;772.97;;;;;;;18.97;100.00;98248.38;284105;34;5505;-75
2022/09/18 00:17:51;;;;;;;829.73;776.60;;;;;;;18.96;100.00;98252.03;285403;34;5632;-76
2022/09/18 00:18:02;;;;;;;829.78;776.53;;;;;;;18.93;100.00;98246.03;285380;34;1303;-76
2022/09/18 00:18:12;;;;;;;830.22;776.97;;;;;;;18.93;100.00;98247.84;285851;34;4923;-76
2022/09/18 00:20:12;;;;;;;780.79;729.21;;;;;;;18.90;100.00;98243.69;2492832;27;20554;-75
2022/09/18 00:20:23;;;;;;;834.10;781.00;;;;;;;18.89;100.00;98246.47;352633;28;1243;-75
2022/09/18 00:20:34;;;;;;;832.25;779.00;;;;;;;18.87;100.00;98249.28;351722;28;769;-75
2022/09/18 00:20:44;;;;;;;835.83;782.53;;;;;;;18.86;100.00;98247.59;348848;28;1089;-76
2022/09/18 00:20:54;;;;;;;834.07;781.10;;;;;;;18.83;100.00;98247.91;348912;28;788;-76
2022/09/18 00:21:09;;;;;;;830.75;778.00;;;;;;;18.86;100.00;98247.59;346053;28;1314;-75
2022/09/18 00:21:23;;;;;;;821.35;768.95;;;;;;;18.86;100.00;98244.97;344834;28;908;-76
2022/09/18 00:21:36;;;;;;;821.95;769.45;;;;;;;18.88;100.00;98245.63;345046;28;1479;-76
2022/09/18 00:21:47;;;;;;;829.50;776.67;;;;;;;18.91;100.00;98240.03;344535;28;1390;-76
2022/09/18 00:21:58;;;;;;;831.75;778.72;;;;;;;18.91;100.00;98242.69;344797;28;1460;-76
2022/09/18 00:22:08;;;;;;;831.67;778.63;;;;;;;18.90;100.00;98246.34;345582;28;1345;-76
2022/09/18 00:22:19;;;;;;;832.17;779.05;;;;;;;18.87;100.00;98243.97;343138;28;1789;-76
2022/09/18 00:22:29;;;;;;;829.00;776.07;;;;;;;18.88;100.00;98250.13;344401;28;1392;-76
2022/09/18 00:22:40;;;;;;;831.00;778.10;;;;;;;18.86;100.00;98237.00;344507;28;1153;-76
2022/09/18 00:22:50;;;;;;;830.47;777.67;;;;;;;18.88;99.99;98244.81;344923;28;1916;-75
2022/09/18 00:23:01;;;;;;;830.20;777.40;;;;;;;18.86;99.74;98242.31;347330;28;1386;-75
2022/09/18 00:23:11;;;;;;;831.33;778.47;;;;;;;18.86;99.94;98244.97;346056;28;1458;-75
2022/09/18 00:23:21;;;;;;;826.33;773.60;;;;;;;18.86;99.98;98242.31;346048;28;824;-75
2022/09/18 00:23:32;;;;;;;826.50;773.73;;;;;;;18.86;99.97;98250.25;343340;28;1190;-75
2022/09/18 00:23:43;;;;;;;828.35;775.60;;;;;;;18.85;100.00;98234.50;341964;28;1453;-75
2022/09/18 00:23:55;;;;;;;834.70;781.97;;;;;;;18.86;99.98;98242.31;346670;28;1748;-76
2022/09/18 00:24:05;;;;;;;834.45;781.75;;;;;;;18.87;100.00;98238.66;342037;28;1964;-76
2022/09/18 00:24:18;;;;;;;832.40;779.78;;;;;;;18.87;99.68;98243.13;339285;29;1325;-76
2022/09/18 00:24:29;;;;;;;829.03;776.42;;;;;;;18.86;99.85;98237.00;343305;28;1314;-76
2022/09/18 00:24:39;;;;;;;833.75;781.05;;;;;;;18.87;100.00;98246.63;345897;28;1205;-75
2022/09/18 00:24:50;;;;;;;837.07;784.10;;;;;;;18.87;100.00;98238.66;347959;28;2007;-75
2022/09/18 00:25:00;;;;;;;837.78;784.80;;;;;;;18.87;100.00;98240.50;344789;28;743;-75
2022/09/18 00:25:10;;;;;;;836.97;784.07;;;;;;;18.86;100.00;98239.66;346140;28;947;-75
2022/09/18 00:25:21;;;;;;;837.20;784.33;;;;;;;18.88;99.75;98244.81;343353;28;1275;-75
2022/09/18 00:25:31;;;;;;;838.53;785.63;;;;;;;18.90;99.71;98240.19;343405;28;1317;-75
2022/09/18 00:25:42;;;;;;;838.50;785.57;;;;;;;18.90;100.00;98240.19;342540;28;837;-75
2022/09/18 00:25:52;;;;;;;838.15;785.25;;;;;;;18.90;99.93;98242.84;344648;28;895;-76
2022/09/18 00:26:03;;;;;;;842.93;789.37;;;;;;;18.90;100.00;98232.25;342576;28;1235;-76
2022/09/18 00:26:14;;;;;;;843.63;789.88;;;;;;;18.90;99.93;98238.38;343416;28;905;-76
2022/09/18 00:26:25;;;;;;;843.53;789.67;;;;;;;18.92;99.73;98235.56;343667;28;1489;-75
2022/09/18 00:26:35;;;;;;;838.83;785.57;;;;;;;18.93;100.00;98229.28;343359;28;1206;-75
2022/09/18 00:26:46;;;;;;;838.13;784.93;;;;;;;18.97;99.92;98237.78;343549;28;1216;-75
2022/09/18 00:26:56;;;;;;;833.03;779.88;;;;;;;18.99;100.00;98230.50;342183;28;1276;-75
2022/09/18 00:27:06;;;;;;;832.33;779.10;;;;;;;18.98;100.00;98229.69;343378;28;1694;-75
2022/09/18 00:27:17;;;;;;;828.80;775.85;;;;;;;18.98;99.90;98228.84;342080;28;1594;-75
2022/09/18 00:27:28;;;;;;;833.13;780.23;;;;;;;18.99;99.59;98220.75;346059;28;1348;-76
2022/09/18 00:27:38;;;;;;;833.92;780.95;;;;;;;18.98;99.76;98237.63;345978;28;1632;-76
2022/09/18 00:27:49;;;;;;;834.72;781.58;;;;;;;18.99;99.57;98226.03;348240;28;1945;-75
2022/09/18 00:27:59;;;;;;;835.03;781.73;;;;;;;18.96;99.62;98233.47;348632;28;1400;-75
2022/09/18 00:28:09;;;;;;;835.17;781.80;;;;;;;18.87;99.90;98229.88;346434;28;2327;-76
2022/09/18 00:28:20;;;;;;;840.67;786.80;;;;;;;18.80;100.00;98227.00;343467;28;4994;-75
2022/09/18 00:28:31;;;;;;;838.97;785.47;;;;;;;18.77;100.00;98232.59;346090;28;872;-75
2022/09/18 00:28:41;;;;;;;840.05;786.50;;;;;;;18.74;100.00;98224.94;344988;28;1188;-75
2022/09/18 00:28:52;;;;;;;836.90;783.92;;;;;;;18.70;100.00;98228.84;341480;28;1629;-75
2022/09/18 00:29:03;;;;;;;834.28;781.28;;;;;;;18.67;100.00;98231.78;339511;29;1911;-76
2022/09/18 00:29:14;;;;;;;835.92;782.85;;;;;;;18.63;100.00;98229.63;338551;29;1249;-76
2022/09/18 00:29:24;;;;;;;839.00;785.75;;;;;;;18.59;100.00;98226.41;340180;28;1207;-75
2022/09/18 00:29:35;;;;;;;845.13;791.73;;;;;;;18.58;100.00;98227.38;337951;29;1438;-76
2022/09/18 00:29:45;;;;;;;843.93;790.57;;;;;;;18.57;100.00;98228.34;340777;29;811;-75
2022/09/18 00:29:55;;;;;;;843.78;790.35;;;;;;;18.59;100.00;98234.34;339402;28;1532;-75
2022/09/18 00:30:06;;;;;;;842.80;789.47;;;;;;;18.61;100.00;98227.13;339180;29;1448;-75
2022/09/18 00:30:17;;;;;;;844.67;791.33;;;;;;;18.63;100.00;98230.41;332776;29;1735;-75
2022/09/18 00:30:27;;;;;;;847.33;793.95;;;;;;;18.65;100.00;98228.47;328769;29;2198;-75
2022/09/18 00:30:38;;;;;;;843.57;790.30;;;;;;;18.67;100.00;98223.00;330077;29;1979;-75
2022/09/18 00:30:48;;;;;;;838.20;785.20;;;;;;;18.67;100.00;98234.44;331922;29;1236;-75
2022/09/18 00:31:12;;;;;;;835.10;782.30;;;;;;;18.68;100.00;98230.81;332942;29;1590;-75
2022/09/18 00:31:24;;;;;;;838.42;785.33;;;;;;;18.70;100.00;98231.50;330337;29;1613;-75
2022/09/18 00:31:36;;;;;;;837.58;784.76;;;;;;;18.71;100.00;98235.81;329445;29;1684;-75
2022/09/18 00:31:46;;;;;;;838.92;786.20;;;;;;;18.73;100.00;98233.84;330295;29;1095;-75
2022/09/18 00:31:58;;;;;;;837.50;784.77;;;;;;;18.73;100.00;98231.22;325513;30;1550;-75
2022/09/18 00:32:09;;;;;;;841.70;788.63;;;;;;;18.74;100.00;98230.22;328508;29;1960;-74
2022/09/18 00:32:19;;;;;;;839.38;786.15;;;;;;;18.74;100.00;98232.88;324118;30;1602;-76
2022/09/18 00:32:29;;;;;;;838.67;785.40;;;;;;;18.75;100.00;98223.94;323139;30;1112;-75
2022/09/18 00:32:40;;;;;;;837.22;783.95;;;;;;;18.77;100.00;98231.75;321191;30;2111;-75
2022/09/18 00:32:50;;;;;;;842.60;789.17;;;;;;;18.76;100.00;98228.25;323429;30;2059;-75
2022/09/18 00:33:01;;;;;;;848.17;794.57;;;;;;;18.75;100.00;98226.59;326481;30;1288;-75
2022/09/18 00:33:11;;;;;;;846.83;793.22;;;;;;;18.77;100.00;98221.97;322379;30;1486;-75
2022/09/18 00:33:22;;;;;;;846.00;792.50;;;;;;;18.77;100.00;98227.28;321776;30;2518;-75
2022/09/18 00:33:32;;;;;;;840.47;787.17;;;;;;;18.79;100.00;98227.97;320413;30;1882;-76
2022/09/18 00:33:43;;;;;;;841.17;788.03;;;;;;;18.79;100.00;98225.31;321996;30;868;-76
2022/09/18 00:33:53;;;;;;;837.53;784.53;;;;;;;18.80;100.00;98227.00;320812;30;1565;-76
2022/09/18 00:34:06;;;;;;;840.57;787.63;;;;;;;18.79;100.00;98230.63;319420;30;2143;-76
2022/09/18 00:34:16;;;;;;;838.00;785.13;;;;;;;18.79;100.00;98230.63;317610;30;2556;-76
2022/09/18 00:34:27;;;;;;;836.80;783.90;;;;;;;18.79;100.00;98230.63;317289;31;1365;-75
2022/09/18 00:34:40;;;;;;;839.10;786.17;;;;;;;18.79;100.00;98225.31;312375;31;3036;-75
2022/09/18 00:34:50;;;;;;;838.88;786.20;;;;;;;18.78;100.00;98228.94;312148;31;2856;-75
2022/09/18 00:35:01;;;;;;;836.90;784.40;;;;;;;18.76;100.00;98225.63;314059;31;1041;-77
2022/09/18 00:35:11;;;;;;;835.77;783.17;;;;;;;18.78;100.00;98230.78;310900;31;1594;-77
2022/09/18 00:35:21;;;;;;;838.42;785.60;;;;;;;18.78;100.00;98231.59;309409;31;2751;-75
2022/09/18 00:35:32;;;;;;;841.03;788.13;;;;;;;18.79;100.00;98225.31;307583;31;3218;-75
2022/09/18 00:35:43;;;;;;;840.33;787.47;;;;;;;18.80;100.00;98232.28;307302;32;1236;-76
2022/09/18 00:35:53;;;;;;;839.47;786.60;;;;;;;18.81;100.00;98227.81;310373;31;2418;-76
2022/09/18 00:36:04;;;;;;;830.55;777.97;;;;;;;18.81;100.00;98228.66;311095;31;2199;-76
2022/09/18 00:36:15;;;;;;;825.22;772.60;;;;;;;18.81;100.00;98230.47;309431;31;1614;-76
2022/09/18 00:36:26;;;;;;;821.83;769.20;;;;;;;18.81;100.00;98231.31;313227;31;3027;-76
2022/09/18 00:36:37;;;;;;;824.75;771.95;;;;;;;18.81;100.00;98227.81;309471;31;4163;-75
2022/09/18 00:36:47;;;;;;;827.65;774.92;;;;;;;18.81;100.00;98239.25;305033;32;3940;-75
2022/09/18 00:36:58;;;;;;;834.63;781.70;;;;;;;18.81;100.00;98233.13;301087;32;919;-76
2022/09/18 00:37:08;;;;;;;835.50;782.38;;;;;;;18.82;100.00;98234.78;303177;32;4173;-75
2022/09/18 00:37:19;;;;;;;832.40;779.50;;;;;;;18.79;100.00;98233.28;303576;32;4159;-75
2022/09/18 00:37:29;;;;;;;828.40;775.45;;;;;;;18.78;100.00;98234.25;303227;32;4029;-75
2022/09/18 00:37:39;;;;;;;830.87;778.03;;;;;;;18.77;100.00;98229.94;302467;32;3662;-75
2022/09/18 00:37:50;;;;;;;833.70;780.60;;;;;;;18.78;100.00;98233.41;301468;32;4477;-76
2022/09/18 00:38:00;;;;;;;833.95;780.92;;;;;;;18.78;100.00;98234.25;305268;32;1541;-76
2022/09/18 00:38:11;;;;;;;830.47;777.50;;;;;;;18.75;100.00;98226.59;307133;32;3570;-77
2022/09/18 00:38:21;;;;;;;829.13;776.28;;;;;;;18.73;100.00;98220.59;303967;32;3549;-73
2022/09/18 00:38:32;;;;;;;830.87;777.83;;;;;;;18.74;100.00;98235.53;302726;32;4588;-75
2022/09/18 00:38:42;;;;;;;835.28;782.17;;;;;;;18.73;100.00;98223.25;300999;32;1772;-75
2022/09/18 00:38:53;;;;;;;837.00;783.83;;;;;;;18.74;100.00;98230.22;296364;32;5730;-75
2022/09/18 00:39:04;;;;;;;839.65;786.45;;;;;;;18.73;100.00;98223.25;292372;33;5964;-75
2022/09/18 00:39:15;;;;;;;838.38;785.20;;;;;;;18.74;100.00;98226.75;289869;34;1773;-75
2022/09/18 00:39:25;;;;;;;835.75;782.78;;;;;;;18.72;100.00;98226.88;288709;33;6212;-75
2022/09/18 00:39:36;;;;;;;836.17;783.17;;;;;;;18.73;100.00;98225.06;288188;33;6516;-75
2022/09/18 00:39:46;;;;;;;838.80;785.67;;;;;;;18.71;100.00;98227.88;288117;34;5538;-75
2022/09/18 00:39:56;;;;;;;838.73;785.53;;;;;;;18.72;100.00;98229.53;285420;34;1640;-75
2022/09/18 00:40:07;;;;;;;836.17;783.17;;;;;;;18.71;100.00;98225.22;285009;34;6292;-75
2022/09/18 00:40:18;;;;;;;833.47;780.72;;;;;;;18.71;100.00;98232.34;283814;34;4727;-75
2022/09/18 00:40:28;;;;;;;835.23;782.40;;;;;;;18.69;100.00;98231.66;285193;34;866;-75
2022/09/18 00:40:38;;;;;;;836.42;783.47;;;;;;;18.67;100.00;98230.97;282645;34;5171;-76
2022/09/18 00:40:49;;;;;;;837.73;784.73;;;;;;;18.65;100.00;98233.75;278692;35;6893;-75
2022/09/18 00:41:03;;;;;;;830.80;778.07;;;;;;;18.64;100.00;98232.09;276359;35;989;-75
2022/09/18 00:42:52;;;;;;;784.12;732.52;;;;;;;18.68;100.00;98232.63;2496945;27;20478;-75
2022/09/18 00:43:23;;;;;;;839.33;786.23;;;;;;;18.69;100.00;98240.44;351547;28;1362;-75
2022/09/18 00:43:34;;;;;;;835.17;782.63;;;;;;;18.70;100.00;98242.09;349426;28;928;-75
2022/09/18 00:43:45;;;;;;;838.38;785.55;;;;;;;18.69;100.00;98237.78;347403;28;1380;-75
2022/09/18 00:44:30;;;;;;;841.97;788.87;;;;;;;18.69;100.00;98245.75;345846;28;833;-75
2022/09/18 00:44:41;;;;;;;834.00;781.70;;;;;;;18.66;100.00;98239.91;344775;28;870;-76
2022/09/18 00:44:52;;;;;;;827.45;775.42;;;;;;;18.68;100.00;98238.75;343977;28;1552;-75
2022/09/18 00:45:02;;;;;;;828.75;776.30;;;;;;;18.69;100.00;98236.94;342595;28;975;-75
2022/09/18 00:45:13;;;;;;;835.27;782.60;;;;;;;18.69;100.00;98248.38;345841;28;1678;-76
2022/09/18 00:45:23;;;;;;;838.72;785.90;;;;;;;18.70;100.00;98242.09;347559;28;855;-75
2022/09/18 00:45:34;;;;;;;838.60;785.80;;;;;;;18.71;100.00;98243.78;346620;28;1381;-75
2022/09/18 00:45:46;;;;;;;839.13;786.33;;;;;;;18.71;100.00;98242.94;346109;28;866;-75
2022/09/18 00:46:06;;;;;;;837.75;785.05;;;;;;;18.72;100.00;98242.78;347467;28;1694;-74
2022/09/18 00:46:28;;;;;;;831.58;779.35;;;;;;;18.71;100.00;98243.78;345454;28;1090;-75
2022/09/18 00:46:39;;;;;;;840.50;787.92;;;;;;;18.72;100.00;98242.78;341950;28;4517;-74
2022/09/18 00:46:49;;;;;;;843.50;790.63;;;;;;;18.71;100.00;98251.72;343678;28;2763;-74
2022/09/18 00:47:10;;;;;;;848.67;795.13;;;;;;;18.72;100.00;98248.09;347735;28;1311;-76
2022/09/18 00:47:23;;;;;;;847.70;794.53;;;;;;;18.70;100.00;98252.72;348049;28;1926;-75
2022/09/18 00:47:47;;;;;;;839.92;787.42;;;;;;;18.72;100.00;98244.59;347991;28;1573;-75
2022/09/18 00:47:57;;;;;;;830.67;778.47;;;;;;;18.72;100.00;98256.03;347571;28;887;-75
2022/09/18 00:48:08;;;;;;;833.63;781.17;;;;;;;18.73;100.00;98251.56;347766;28;1180;-75
2022/09/18 00:48:19;;;;;;;829.67;777.07;;;;;;;18.72;100.00;98250.75;347767;28;1532;-75
2022/09/18 00:48:50;;;;;;;829.67;776.92;;;;;;;18.73;100.00;98251.56;345658;28;972;-75
2022/09/18 00:49:12;;;;;;;834.55;782.30;;;;;;;18.76;100.00;98249.47;342450;28;1002;-75
2022/09/18 00:49:24;;;;;;;837.10;784.72;;;;;;;18.76;100.00;98246.00;343536;28;2108;-75
2022/09/18 00:49:38;;;;;;;833.55;781.05;;;;;;;18.76;100.00;98241.53;339045;29;1678;-75
2022/09/18 00:50:16;;;;;;;836.80;783.83;;;;;;;18.75;100.00;98234.56;341467;28;1306;-75
2022/09/18 00:50:26;;;;;;;833.85;781.35;;;;;;;18.78;100.00;98244.84;336038;29;1394;-74
2022/09/18 00:50:37;;;;;;;838.50;785.77;;;;;;;18.77;100.00;98243.19;338555;29;1377;-75
2022/09/18 00:50:47;;;;;;;840.85;787.97;;;;;;;18.76;100.00;98238.88;336635;29;1396;-75
2022/09/18 00:50:59;;;;;;;840.57;787.50;;;;;;;18.75;100.00;98242.50;332526;29;1248;-75
2022/09/18 00:51:10;;;;;;;837.80;784.90;;;;;;;18.74;100.00;98238.19;331229;29;1457;-76
2022/09/18 00:51:20;;;;;;;836.58;783.78;;;;;;;18.72;100.00;98240.16;333723;29;1387;-76
2022/09/18 00:51:32;;;;;;;835.10;782.30;;;;;;;18.73;100.00;98241.81;331847;29;1762;-75
2022/09/18 00:51:44;;;;;;;833.40;780.65;;;;;;;18.74;100.00;98240.00;331771;29;1963;-75
2022/09/18 00:51:54;;;;;;;828.13;775.50;;;;;;;18.71;100.00;98235.81;333989;29;1283;-75
2022/09/18 00:52:05;;;;;;;830.85;778.20;;;;;;;18.69;100.00;98232.47;335048;29;1274;-75
2022/09/18 00:52:16;;;;;;;830.80;778.07;;;;;;;18.71;100.00;98233.19;333007;29;1010;-74
2022/09/18 00:52:30;;;;;;;833.88;780.85;;;;;;;18.71;100.00;98230.53;335724;29;1560;-74
2022/09/18 00:52:48;;;;;;;833.15;780.22;;;;;;;18.71;100.00;98233.19;334372;29;1213;-75
2022/09/18 00:53:00;;;;;;;829.80;777.20;;;;;;;18.71;100.00;98233.19;329927;29;1822;-75
2022/09/18 00:53:11;;;;;;;826.95;774.38;;;;;;;18.71;100.00;98233.19;329843;29;1454;-75
2022/09/18 00:53:21;;;;;;;831.17;778.33;;;;;;;18.71;100.00;98237.63;330109;29;1851;-75
2022/09/18 00:53:32;;;;;;;837.05;784.00;;;;;;;18.73;100.00;98231.22;326692;30;2128;-75
2022/09/18 00:53:44;;;;;;;838.03;784.97;;;;;;;18.72;100.00;98234.84;326544;30;2175;-75
2022/09/18 00:54:17;;;;;;;835.55;782.55;;;;;;;18.71;100.00;98237.63;327938;30;1940;-75
2022/09/18 00:54:29;;;;;;;834.45;782.10;;;;;;;18.69;100.00;98244.91;323279;30;1143;-75
2022/09/18 00:54:40;;;;;;;837.35;784.88;;;;;;;18.69;100.00;98245.75;322039;30;1023;-75
2022/09/18 00:55:04;;;;;;;836.35;783.60;;;;;;;18.70;100.00;98242.09;324334;30;1754;-75
2022/09/18 00:55:14;;;;;;;831.75;779.10;;;;;;;18.68;100.00;98240.59;322240;30;2326;-76
2022/09/18 00:55:36;;;;;;;834.47;781.72;;;;;;;18.69;100.00;98245.75;322040;30;880;-76
2022/09/18 00:55:46;;;;;;;835.83;783.38;;;;;;;18.70;100.00;98247.41;316177;30;2976;-75
2022/09/18 00:55:57;;;;;;;835.90;783.30;;;;;;;18.70;100.00;98252.72;314676;30;2790;-76
2022/09/18 00:56:07;;;;;;;842.00;788.80;;;;;;;18.71;100.00;98249.06;317244;31;1330;-75
2022/09/18 00:56:18;;;;;;;842.03;788.93;;;;;;;18.71;100.00;98249.06;319671;30;1841;-76
2022/09/18 00:56:28;;;;;;;839.20;786.20;;;;;;;18.71;100.00;98249.06;316870;31;3251;-76
2022/09/18 00:56:38;;;;;;;838.65;785.70;;;;;;;18.71;100.00;98249.06;314457;31;2066;-75
2022/09/18 00:56:49;;;;;;;835.13;782.13;;;;;;;18.73;100.00;98254.22;313100;31;1866;-75
2022/09/18 00:57:03;;;;;;;832.72;779.83;;;;;;;18.73;100.00;98249.75;311395;31;2722;-75
2022/09/18 00:57:16;;;;;;;830.40;777.55;;;;;;;18.76;100.00;98248.63;313712;30;2884;-75